createdAt,value
2023-01-29T00:02:36.456Z,74.82
2023-01-29T00:08:27.154Z,75.89
2023-01-29T00:10:20.921Z,75.32
2023-01-29T00:11:17.672Z,75.77
2023-01-29T00:14:01.125Z,75.27
2023-01-29T00:16:43.392Z,75.65
2023-01-29T00:19:32.184Z,75.67
2023-01-29T00:22:20.518Z,74.88
2023-01-29T00:25:03.147Z,74.62
2023-01-29T00:27:45.756Z,74.81
2023-01-29T00:30:34.217Z,75.07
2023-01-29T00:33:22.419Z,75.29
2023-01-29T00:36:13.178Z,74.98
2023-01-29T00:38:59.656Z,75.88
2023-01-29T00:42:06.179Z,75.10
2023-01-29T00:45:13.210Z,75.59
2023-01-29T00:47:55.350Z,75.47
2023-01-29T00:50:45.166Z,75.30
2023-01-29T00:53:27.375Z,75.83
2023-01-29T00:56:16.146Z,76.40
2023-01-29T00:58:58.615Z,75.31
2023-01-29T01:02:05.329Z,75.58
2023-01-29T01:04:54.400Z,75.04
2023-01-29T01:07:37.172Z,75.59
2023-01-29T01:10:46.051Z,75.88
2023-01-29T01:13:28.561Z,75.49
2023-01-29T01:16:19.625Z,75.52
2023-01-29T01:19:08.172Z,75.25
2023-01-29T01:21:56.510Z,75.67
2023-01-29T01:24:39.156Z,75.07
2023-01-29T01:27:21.434Z,74.59
2023-01-29T01:30:10.231Z,74.55
2023-01-29T01:32:53.060Z,74.73
2023-01-29T01:35:42.175Z,75.20
2023-01-29T01:38:24.348Z,74.62
2023-01-29T01:41:13.119Z,74.94
2023-01-29T01:43:56.777Z,75.25
2023-01-29T01:46:49.231Z,75.60
2023-01-29T01:49:32.941Z,75.00
2023-01-29T01:52:24.261Z,74.35
2023-01-29T01:55:08.473Z,74.08
2023-01-29T01:58:01.113Z,75.43
2023-01-29T02:00:44.110Z,75.56
2023-01-29T02:03:54.276Z,76.30
2023-01-29T02:07:02.619Z,76.55
2023-01-29T02:09:51.133Z,77.01
2023-01-29T02:12:34.248Z,75.86
2023-01-29T02:15:23.166Z,75.78
2023-01-29T02:18:05.648Z,76.24
2023-01-29T02:20:58.193Z,75.92
2023-01-29T02:24:13.537Z,75.66
2023-01-29T02:27:15.488Z,76.21
2023-01-29T02:30:27.155Z,75.00
2023-01-29T02:33:39.454Z,74.97
2023-01-29T02:36:37.192Z,74.84
2023-01-29T02:39:32.472Z,74.50
2023-01-29T02:42:43.108Z,73.62
2023-01-29T02:45:32.457Z,74.22
2023-01-29T02:48:31.200Z,72.96
2023-01-29T02:51:21.470Z,73.14
2023-01-29T02:54:22.261Z,73.24
2023-01-29T02:57:15.892Z,71.75
2023-01-29T03:00:15.470Z,73.10
2023-01-29T03:03:09.142Z,72.08
2023-01-29T03:06:26.135Z,71.77
2023-01-29T03:09:48.127Z,71.12
2023-01-29T03:12:42.203Z,68.76
2023-01-29T03:15:34.667Z,67.67
2023-01-29T03:18:46.944Z,68.60
2023-01-29T03:22:08.489Z,68.40
2023-01-29T03:25:23.516Z,67.70
2023-01-29T03:28:33.135Z,67.44
2023-01-29T03:31:45.326Z,65.53
2023-01-29T03:34:40.039Z,65.78
2023-01-29T03:37:27.188Z,65.79
2023-01-29T03:40:20.420Z,66.27
2023-01-29T03:43:18.146Z,65.48
2023-01-29T03:46:20.057Z,64.60
2023-01-29T03:49:16.148Z,63.90
2023-01-29T03:52:16.128Z,64.43
2023-01-29T03:55:41.195Z,63.97
2023-01-29T03:58:39.151Z,62.75
2023-01-29T04:01:25.442Z,61.04
2023-01-29T04:04:23.218Z,60.51
2023-01-29T04:07:25.608Z,60.23
2023-01-29T04:10:25.194Z,59.51
2023-01-29T04:13:12.478Z,56.89
2023-01-29T04:16:06.253Z,55.42
2023-01-29T04:19:02.484Z,54.60
2023-01-29T04:22:00.193Z,54.13
2023-01-29T04:24:43.388Z,54.02
2023-01-29T04:27:45.489Z,52.65
2023-01-29T04:30:31.487Z,49.73
2023-01-29T04:33:31.218Z,50.35
2023-01-29T04:36:46.470Z,49.14
2023-01-29T04:39:45.135Z,49.90
2023-01-29T04:42:35.111Z,48.65
2023-01-29T04:45:42.354Z,48.94
2023-01-29T04:48:35.197Z,48.44
2023-01-29T04:51:30.403Z,47.48
2023-01-29T04:54:46.149Z,47.60
2023-01-29T04:57:53.463Z,50.19
2023-01-29T05:00:48.069Z,49.84
2023-01-29T05:03:42.078Z,48.08
2023-01-29T05:06:26.085Z,49.54
2023-01-29T05:09:17.089Z,47.90
2023-01-29T05:12:06.436Z,48.36
2023-01-29T05:14:52.092Z,48.29
2023-01-29T05:17:40.399Z,49.09
2023-01-29T05:20:23.128Z,48.68
2023-01-29T05:23:13.116Z,48.68
2023-01-29T05:25:56.411Z,48.42
2023-01-29T05:28:45.076Z,48.05
2023-01-29T05:31:27.582Z,45.82
2023-01-29T05:34:22.502Z,46.09
2023-01-29T05:37:10.437Z,44.40
2023-01-29T05:39:52.080Z,46.70
2023-01-29T05:42:34.477Z,45.72
2023-01-29T05:45:24.104Z,45.79
2023-01-29T05:48:13.401Z,45.32
2023-01-29T05:50:56.120Z,44.82
2023-01-29T05:53:45.230Z,44.36
2023-01-29T05:56:27.490Z,44.14
2023-01-29T05:59:16.147Z,44.91
2023-01-29T06:01:59.459Z,44.90
2023-01-29T06:04:48.061Z,45.88
2023-01-29T06:07:31.455Z,46.04
2023-01-29T06:10:27.152Z,44.85
2023-01-29T06:13:09.411Z,44.38
2023-01-29T06:15:58.206Z,43.85
2023-01-29T06:18:40.442Z,46.03
2023-01-29T06:21:29.107Z,45.49
2023-01-29T06:24:18.124Z,44.90
2023-01-29T06:27:00.529Z,44.34
2023-01-29T06:29:49.110Z,43.65
2023-01-29T06:32:44.113Z,43.98
2023-01-29T06:35:34.012Z,44.35
2023-01-29T06:38:23.100Z,44.73
2023-01-29T06:41:14.393Z,46.31
2023-01-29T06:44:03.094Z,45.16
2023-01-29T06:46:45.283Z,45.50
2023-01-29T06:49:34.157Z,46.77
2023-01-29T06:52:23.528Z,46.64
2023-01-29T06:55:06.095Z,46.98
2023-01-29T06:57:55.158Z,47.51
2023-01-29T07:00:37.460Z,46.71
2023-01-29T07:03:26.107Z,46.40
2023-01-29T07:06:09.220Z,46.48
2023-01-29T07:09:24.096Z,47.41
2023-01-29T07:12:26.560Z,46.58
2023-01-29T07:15:37.133Z,46.46
2023-01-29T07:18:39.999Z,46.35
2023-01-29T07:21:49.099Z,48.28
2023-01-29T07:24:51.524Z,49.33
2023-01-29T07:28:00.962Z,49.39
2023-01-29T07:31:07.471Z,50.93
2023-01-29T07:34:17.179Z,51.89
2023-01-29T07:37:25.377Z,51.75
2023-01-29T07:40:28.159Z,51.93
2023-01-29T07:43:31.215Z,52.78
2023-01-29T07:46:40.166Z,53.98
2023-01-29T07:49:42.279Z,53.60
2023-01-29T07:52:52.057Z,53.82
2023-01-29T07:55:54.554Z,55.11
2023-01-29T07:59:04.146Z,54.49
2023-01-29T08:02:13.180Z,54.91
2023-01-29T08:05:16.436Z,54.43
2023-01-29T08:08:25.094Z,54.82
2023-01-29T08:11:27.412Z,55.07
2023-01-29T08:14:36.091Z,54.37
2023-01-29T08:17:56.160Z,54.65
2023-01-29T08:21:11.754Z,54.70
2023-01-29T08:24:16.730Z,54.52
2023-01-29T08:27:34.046Z,55.04
2023-01-29T08:30:45.132Z,55.30
2023-01-29T08:33:47.311Z,54.98
2023-01-29T08:36:57.232Z,55.39
2023-01-29T08:40:00.407Z,55.78
2023-01-29T08:43:14.303Z,56.46
2023-01-29T08:46:17.486Z,56.10
2023-01-29T08:49:26.146Z,56.48
2023-01-29T08:52:35.143Z,56.91
2023-01-29T08:55:37.546Z,56.47
2023-01-29T08:58:47.139Z,57.08
2023-01-29T09:01:49.378Z,57.50
2023-01-29T09:04:58.138Z,56.88
2023-01-29T09:08:00.292Z,57.01
2023-01-29T09:11:10.054Z,56.62
2023-01-29T09:14:21.351Z,57.06
2023-01-29T09:17:24.563Z,56.38
2023-01-29T09:20:34.044Z,57.02
2023-01-29T09:23:16.464Z,57.00
2023-01-29T09:26:05.173Z,57.29
2023-01-29T09:28:54.422Z,57.56
2023-01-29T09:31:37.176Z,58.66
2023-01-29T09:34:19.310Z,58.30
2023-01-29T09:37:08.164Z,58.81
2023-01-29T09:39:58.357Z,59.35
2023-01-29T09:42:56.186Z,59.74
2023-01-29T09:45:48.388Z,60.55
2023-01-29T09:48:37.157Z,61.48
2023-01-29T09:51:48.300Z,61.04
2023-01-29T09:54:51.108Z,61.08
2023-01-29T09:58:07.203Z,61.30
2023-01-29T10:01:09.224Z,60.85
2023-01-29T10:04:00.471Z,61.47
2023-01-29T10:06:54.388Z,60.87
2023-01-29T10:10:09.486Z,60.87
2023-01-29T10:13:28.093Z,60.50
2023-01-29T10:16:37.581Z,61.33
2023-01-29T10:19:26.536Z,60.95
2023-01-29T10:22:22.084Z,61.21
2023-01-29T10:25:19.446Z,61.80
2023-01-29T10:28:09.185Z,62.26
2023-01-29T10:30:56.642Z,62.21
2023-01-29T10:34:01.495Z,62.93
2023-01-29T10:36:55.432Z,62.41
2023-01-29T10:39:39.175Z,62.46
2023-01-29T10:42:48.455Z,62.59
2023-01-29T10:46:07.146Z,63.08
2023-01-29T10:49:06.071Z,63.25
2023-01-29T10:52:04.368Z,63.84
2023-01-29T10:55:22.077Z,63.72
2023-01-29T10:58:19.393Z,65.44
2023-01-29T11:01:08.368Z,67.20
2023-01-29T11:03:51.054Z,69.35
2023-01-29T11:06:42.063Z,69.93
2023-01-29T11:09:54.493Z,70.71
2023-01-29T11:12:46.187Z,71.07
2023-01-29T11:15:39.558Z,71.59
2023-01-29T11:18:28.462Z,72.57
2023-01-29T11:21:12.959Z,74.72
2023-01-29T11:24:25.037Z,76.79
2023-01-29T11:27:15.033Z,78.17
2023-01-29T11:29:57.708Z,78.06
2023-01-29T11:32:50.081Z,78.73
2023-01-29T11:35:46.125Z,79.46
2023-01-29T11:38:30.853Z,79.97
2023-01-29T11:41:30.018Z,80.35
2023-01-29T11:44:41.432Z,80.35
2023-01-29T11:47:34.371Z,80.54
2023-01-29T11:50:25.082Z,80.46
2023-01-29T11:53:15.118Z,80.31
2023-01-29T11:55:57.696Z,80.54
2023-01-29T11:58:49.029Z,81.02
2023-01-29T12:01:46.119Z,80.95
2023-01-29T12:04:34.785Z,80.77
2023-01-29T12:07:26.093Z,81.09
2023-01-29T12:10:08.332Z,81.06
2023-01-29T12:12:57.135Z,81.43
2023-01-29T12:15:39.418Z,80.81
2023-01-29T12:18:49.411Z,80.57
2023-01-29T12:21:45.503Z,80.20
2023-01-29T12:24:58.159Z,79.62
2023-01-29T12:28:19.365Z,79.40
2023-01-29T12:31:21.231Z,79.39
2023-01-29T12:34:25.410Z,79.00
2023-01-29T12:38:05.122Z,78.20
2023-01-29T12:41:40.130Z,78.28
2023-01-29T12:44:34.243Z,77.26
2023-01-29T12:47:56.054Z,77.34
2023-01-29T12:50:43.480Z,75.96
2023-01-29T12:53:59.169Z,75.93
2023-01-29T12:56:43.489Z,76.28
2023-01-29T12:59:37.081Z,75.12
2023-01-29T13:02:36.333Z,74.33
2023-01-29T13:05:43.141Z,74.63
2023-01-29T13:08:58.419Z,74.72
2023-01-29T13:12:02.194Z,74.81
2023-01-29T13:14:56.535Z,75.46
2023-01-29T13:17:51.136Z,75.54
2023-01-29T13:20:42.402Z,75.92
2023-01-29T13:23:47.529Z,76.17
2023-01-29T13:26:31.930Z,76.60
2023-01-29T13:29:37.065Z,76.80
2023-01-29T13:32:39.378Z,76.85
2023-01-29T13:35:25.067Z,76.65
2023-01-29T13:38:29.007Z,77.05
2023-01-29T13:41:14.580Z,77.46
2023-01-29T13:44:04.130Z,77.47
2023-01-29T13:46:49.504Z,77.68
2023-01-29T13:49:40.108Z,77.61
2023-01-29T13:52:45.584Z,77.04
2023-01-29T13:55:39.070Z,76.87
2023-01-29T13:58:26.405Z,76.54
2023-01-29T14:01:15.319Z,76.80
2023-01-29T14:04:07.545Z,76.34
2023-01-29T14:06:59.194Z,76.11
2023-01-29T14:09:44.327Z,76.39
2023-01-29T14:12:33.107Z,75.52
2023-01-29T14:15:34.491Z,75.69
2023-01-29T14:18:32.157Z,75.99
2023-01-29T14:21:30.844Z,76.05
2023-01-29T14:24:30.084Z,76.09
2023-01-29T14:27:20.235Z,76.39
2023-01-29T14:30:17.726Z,76.32
2023-01-29T14:33:14.039Z,76.07
2023-01-29T14:35:58.695Z,76.27
2023-01-29T14:38:51.109Z,76.14
2023-01-29T14:41:46.332Z,76.12
2023-01-29T14:44:52.986Z,76.04
2023-01-29T14:47:42.417Z,75.59
2023-01-29T14:50:47.043Z,75.33
2023-01-29T14:53:46.514Z,74.69
2023-01-29T14:56:52.087Z,74.82
2023-01-29T14:59:54.153Z,75.15
2023-01-29T15:02:46.542Z,74.81
2023-01-29T15:05:44.115Z,74.59
2023-01-29T15:08:50.769Z,74.56
2023-01-29T15:12:04.059Z,74.27
2023-01-29T15:15:01.052Z,74.30
2023-01-29T15:17:54.808Z,74.57
2023-01-29T15:20:44.020Z,74.12
2023-01-29T15:23:38.467Z,74.15
2023-01-29T15:26:27.278Z,74.29
2023-01-29T15:29:32.559Z,75.05
2023-01-29T15:32:16.021Z,74.99
2023-01-29T15:35:06.041Z,75.03
2023-01-29T15:37:48.316Z,74.93
2023-01-29T15:40:37.316Z,75.93
2023-01-29T15:43:34.300Z,75.51
2023-01-29T15:46:34.147Z,75.48
2023-01-29T15:49:23.439Z,76.26
2023-01-29T15:52:16.055Z,75.43
2023-01-29T15:54:59.352Z,75.08
2023-01-29T15:57:51.103Z,75.33
2023-01-29T16:00:36.333Z,75.40
2023-01-29T16:03:25.072Z,75.38
2023-01-29T16:06:08.396Z,75.85
2023-01-29T16:09:02.149Z,76.22
2023-01-29T16:11:45.360Z,76.81
2023-01-29T16:14:34.979Z,76.81
2023-01-29T16:17:39.272Z,76.81
2023-01-29T16:20:59.035Z,76.83
2023-01-29T16:23:50.455Z,76.46
2023-01-29T16:26:44.194Z,76.69
2023-01-29T16:29:39.967Z,76.49
2023-01-29T16:32:29.099Z,76.28
2023-01-29T16:35:12.307Z,76.80
2023-01-29T16:38:04.087Z,77.24
2023-01-29T16:40:54.036Z,76.79
2023-01-29T16:43:50.013Z,76.70
2023-01-29T16:46:45.082Z,76.83
2023-01-29T16:49:37.322Z,76.48
2023-01-29T16:52:32.100Z,76.53
2023-01-29T16:55:20.568Z,76.77
2023-01-29T16:58:20.040Z,76.56
2023-01-29T17:01:09.399Z,76.87
2023-01-29T17:04:07.069Z,77.13
2023-01-29T17:06:53.304Z,76.89
2023-01-29T17:09:45.053Z,77.23
2023-01-29T17:12:30.349Z,77.05
2023-01-29T17:15:54.257Z,77.43
2023-01-29T17:18:37.315Z,76.99
2023-01-29T17:21:25.965Z,77.38
2023-01-29T17:24:08.340Z,77.36
2023-01-29T17:26:57.017Z,76.81
2023-01-29T17:29:40.380Z,76.49
2023-01-29T17:32:44.927Z,76.88
2023-01-29T17:35:35.295Z,77.16
2023-01-29T17:38:26.877Z,76.85
2023-01-29T17:41:26.465Z,77.13
2023-01-29T17:44:08.087Z,77.06
2023-01-29T17:46:50.572Z,77.21
2023-01-29T17:49:45.076Z,77.66
2023-01-29T17:52:27.164Z,77.69
2023-01-29T17:55:16.218Z,77.63
2023-01-29T17:58:05.157Z,76.99
2023-01-29T18:00:47.356Z,77.19
2023-01-29T18:03:36.120Z,77.23
2023-01-29T18:06:25.465Z,77.47
2023-01-29T18:09:15.077Z,77.85
2023-01-29T18:11:58.522Z,77.69
2023-01-29T18:14:46.986Z,77.53
2023-01-29T18:17:29.474Z,77.69
2023-01-29T18:20:32.984Z,78.08
2023-01-29T18:23:16.477Z,78.10
2023-01-29T18:26:05.011Z,78.87
2023-01-29T18:28:47.383Z,78.22
2023-01-29T18:31:36.090Z,78.80
2023-01-29T18:34:25.757Z,79.22
2023-01-29T18:37:10.920Z,79.29
2023-01-29T18:40:00.520Z,79.29
2023-01-29T18:42:44.059Z,79.41
2023-01-29T18:45:32.318Z,79.00
2023-01-29T18:48:15.092Z,79.48
2023-01-29T18:51:05.384Z,79.46
2023-01-29T18:53:47.978Z,79.52
2023-01-29T18:56:30.226Z,79.94
2023-01-29T18:59:19.008Z,79.79
2023-01-29T19:02:01.291Z,80.14
2023-01-29T19:04:49.951Z,80.24
2023-01-29T19:07:32.340Z,80.23
2023-01-29T19:10:23.130Z,80.31
2023-01-29T19:13:12.400Z,80.05
2023-01-29T19:15:55.949Z,80.10
2023-01-29T19:18:45.298Z,80.14
2023-01-29T19:21:28.001Z,80.36
2023-01-29T19:24:18.315Z,79.92
2023-01-29T19:27:01.099Z,80.31
2023-01-29T19:29:50.341Z,80.32
2023-01-29T19:32:38.980Z,80.69
2023-01-29T19:35:21.324Z,80.91
2023-01-29T19:38:09.954Z,81.17
2023-01-29T19:40:52.265Z,80.83
2023-01-29T19:43:41.279Z,80.85
2023-01-29T19:46:23.413Z,81.02
2023-01-29T19:49:14.028Z,80.96
2023-01-29T19:51:59.793Z,80.42
2023-01-29T19:54:54.103Z,80.17
2023-01-29T19:57:36.313Z,80.03
2023-01-29T20:00:26.142Z,79.93
2023-01-29T20:03:08.374Z,79.06
2023-01-29T20:05:57.089Z,79.31
2023-01-29T20:08:41.429Z,78.96
2023-01-29T20:11:31.983Z,78.61
2023-01-29T20:14:21.026Z,78.40
2023-01-29T20:17:03.223Z,78.25
2023-01-29T20:19:52.056Z,77.95
2023-01-29T20:22:34.458Z,77.92
2023-01-29T20:25:24.104Z,77.94
2023-01-29T20:28:08.622Z,77.44
2023-01-29T20:31:02.020Z,77.83
2023-01-29T20:33:51.557Z,78.18
2023-01-29T20:36:33.078Z,78.15
2023-01-29T20:39:22.271Z,78.03
2023-01-29T20:42:05.005Z,77.14
2023-01-29T20:44:47.160Z,76.73
2023-01-29T20:47:35.990Z,77.22
2023-01-29T20:50:20.761Z,77.50
2023-01-29T20:53:09.940Z,77.74
2023-01-29T20:55:52.213Z,77.44
2023-01-29T20:58:41.031Z,77.71
2023-01-29T21:01:23.209Z,77.91
2023-01-29T21:04:11.921Z,77.64
2023-01-29T21:07:01.346Z,77.21
2023-01-29T21:09:44.023Z,77.67
2023-01-29T21:12:32.326Z,77.46
2023-01-29T21:15:15.081Z,77.80
2023-01-29T21:18:05.533Z,77.50
2023-01-29T21:20:47.942Z,77.54
2023-01-29T21:23:37.315Z,77.99
2023-01-29T21:26:20.053Z,77.62
2023-01-29T21:29:08.926Z,77.96
2023-01-29T21:31:59.083Z,77.80
2023-01-29T21:34:53.920Z,78.02
2023-01-29T21:37:42.259Z,77.82
2023-01-29T21:40:25.043Z,78.12
2023-01-29T21:43:13.262Z,78.21
2023-01-29T21:46:03.045Z,78.08
2023-01-29T21:48:51.316Z,77.42
2023-01-29T21:51:33.948Z,78.08
2023-01-29T21:54:16.142Z,78.10
2023-01-29T21:57:05.337Z,77.63
2023-01-29T21:59:53.466Z,77.96
2023-01-29T22:02:38.009Z,78.22
2023-01-29T22:05:27.741Z,77.82
2023-01-29T22:08:11.956Z,77.99
2023-01-29T22:11:00.197Z,78.59
2023-01-29T22:13:43.028Z,78.19
2023-01-29T22:16:31.476Z,78.20
2023-01-29T22:19:13.992Z,78.46
2023-01-29T22:22:03.209Z,78.33
2023-01-29T22:24:45.158Z,78.89
2023-01-29T22:27:33.559Z,78.30
2023-01-29T22:30:16.343Z,78.61
2023-01-29T22:33:10.876Z,79.14
2023-01-29T22:36:04.147Z,78.85
2023-01-29T22:38:46.294Z,78.58
2023-01-29T22:41:34.955Z,79.32
2023-01-29T22:44:18.220Z,78.98
2023-01-29T22:47:06.956Z,78.69
2023-01-29T22:49:51.136Z,78.31
2023-01-29T22:52:45.998Z,78.08
2023-01-29T22:55:28.326Z,78.83
2023-01-29T22:58:17.946Z,78.57
2023-01-29T23:01:00.252Z,78.09
2023-01-29T23:03:49.009Z,77.57
2023-01-29T23:06:31.194Z,77.54
2023-01-29T23:09:19.967Z,78.26
2023-01-29T23:12:02.467Z,78.42
2023-01-29T23:14:50.986Z,78.09
2023-01-29T23:17:33.258Z,77.96
2023-01-29T23:20:21.960Z,77.78
2023-01-29T23:23:04.316Z,77.83
2023-01-29T23:26:10.987Z,78.31
2023-01-29T23:28:54.284Z,78.47
2023-01-29T23:31:43.049Z,78.79
2023-01-29T23:34:31.260Z,79.11
2023-01-29T23:37:13.955Z,78.85
2023-01-29T23:40:02.220Z,78.57
2023-01-29T23:42:44.029Z,79.06
2023-01-29T23:45:32.236Z,78.78
2023-01-29T23:48:14.954Z,79.32
2023-01-29T23:50:57.273Z,78.30
2023-01-29T23:53:45.902Z,79.03
2023-01-29T23:56:28.210Z,79.50
2023-01-29T23:59:16.952Z,79.10
